Accueil
METAR-TAF:

METAR-TAF

Aéroports :

Metz-Nancy-Lorraine, France

Aéroport de Metz-Nancy-Lorraine

latitude: 48-59N, longitude: 006-15E, altitude: 264 m

Observation

Le bulletin a été fait il y a 15 minutes, à 21:30 UTC
Vent 8 kt de est/nord-est
Température 5°C
Humidité 60%
Pression 1023 hPa
Visibilité 10 km ou plus
pas de nuages en-dessous de 1500 mètres et pas de cumulonimbus.

METAR: LFJL 232130Z AUTO 07008KT CAVOK 05/M02 Q1023 NOSIG

Heure: 23:45 (21:45 UTC)

Prévision

Le bulletin a été fait il y a 4 heures et 45 minutes, à 17:00 UTC
Prévision valable du 23 à 18 UTC au 24 à 18 UTC
Vent 5 kt de nord-est
Visibilité 10 km ou plus
pas de nuages en-dessous de 1500 mètres et pas de cumulonimbus.

TAF: LFJL 231700Z 2318/2418 04005KT CAVOK

Observations et prévisions météorologiques de plus de 4000 aéroports (messages METAR et TAF).

Les stations disponibles sont représentées par des disques jaunes et rouges sur la carte.

Passer la souris dessus pour voir le nom de la station.

Cliquer dessus pour voir les observations et prévisions météorologiques.

Pour changer de carte: cliquez sur les boutons verts avec une croix noire pour zoomer, sur le bouton vert avec un tiret pour effectuer un zoom arrière, ou sur les flèches vertes pour les cartes adjacentes.


METAR-TAF: